Time;durP1;ratioP1;P1;durP2;ratioP2;P2;SDS_P1;SDS_P2;PMS_P1;PMS_P2;Temp;Humidity;BMP_temperature;BMP_pressure;BME280_temperature;BME280_humidity;BME280_pressure;Samples;Min_cycle;Max_cycle;Signal;HPM_P1;HPM_P2
2022/09/09 00:01:30;;;;;;;2.92;1.85;;;;;;;17.17;61.95;98899.53;5105778;28;20055;-72
2022/09/09 00:04:01;;;;;;;2.75;1.67;;;;;;;17.57;63.01;98921.75;5087934;28;20054;-72
2022/09/09 00:06:33;;;;;;;3.05;1.50;;;;;;;17.56;62.81;98916.53;5105648;28;20308;-72
2022/09/09 00:09:05;;;;;;;2.55;1.83;;;;;;;17.58;62.85;98917.25;5105537;28;20308;-71
2022/09/09 00:11:42;;;;;;;2.40;1.42;;;;;;;17.30;62.15;98876.03;5105454;28;20056;-71
2022/09/09 00:14:17;;;;;;;1.88;1.38;;;;;;;17.56;62.08;98927.25;5105603;28;20074;-73
2022/09/09 00:16:51;;;;;;;2.38;1.60;;;;;;;17.56;62.38;98916.53;5105457;28;20097;-72
2022/09/09 00:19:25;;;;;;;3.30;2.10;;;;;;;17.56;62.74;98927.25;5105130;28;20064;-72
2022/09/09 00:22:08;;;;;;;4.50;2.00;;;;;;;17.38;62.22;98902.13;5087665;28;20101;-71
2022/09/09 00:24:42;;;;;;;2.97;1.30;;;;;;;17.52;62.02;98932.03;5105272;28;20051;-71
2022/09/09 00:27:20;;;;;;;2.03;1.25;;;;;;;17.41;60.47;98926.81;5105531;28;20056;-71
2022/09/09 00:29:54;;;;;;;1.65;1.10;;;;;;;17.37;61.49;98917.34;5104798;28;20082;-70
2022/09/09 00:32:22;;;;;;;3.47;1.60;;;;;;;16.94;62.07;98837.31;5104846;28;20064;-71
2022/09/09 00:34:55;;;;;;;2.03;1.15;;;;;;;17.45;62.13;98906.78;5105253;28;20113;-71
2022/09/09 00:37:25;;;;;;;2.30;1.48;;;;;;;16.72;62.40;98782.19;5105427;28;20040;-71
2022/09/09 00:39:56;;;;;;;2.97;1.60;;;;;;;17.50;62.70;98906.38;5088064;28;20068;-71
2022/09/09 00:42:31;;;;;;;2.30;1.48;;;;;;;16.95;62.14;98818.44;5105166;28;20346;-71
2022/09/09 00:45:05;;;;;;;2.10;1.30;;;;;;;17.50;62.28;98909.91;5105130;28;20258;-71
2022/09/09 00:47:44;;;;;;;2.83;1.40;;;;;;;17.50;61.33;98915.25;5105160;28;20056;-71
2022/09/09 00:50:29;;;;;;;2.00;1.20;;;;;;;17.49;62.08;98916.25;5104777;28;20059;-71
2022/09/09 00:53:06;;;;;;;2.15;1.38;;;;;;;17.49;62.26;98916.25;5104741;28;20109;-71
2022/09/09 00:55:46;;;;;;;2.05;1.40;;;;;;;17.19;62.18;98870.78;5106456;28;20064;-71
2022/09/09 00:58:15;;;;;;;2.35;1.30;;;;;;;17.44;62.60;98923.00;5091354;28;20101;-71
2022/09/09 01:00:45;;;;;;;1.85;1.25;;;;;;;17.46;62.71;98934.44;5109049;28;20051;-71
2022/09/09 01:03:26;;;;;;;1.65;1.15;;;;;;;17.26;61.13;98906.75;5109330;28;20051;-71
2022/09/09 01:06:03;;;;;;;1.98;1.25;;;;;;;17.36;61.76;98928.22;5091339;28;20250;-71
2022/09/09 01:08:54;;;;;;;5.20;1.50;;;;;;;17.41;61.57;98934.00;5108680;28;20056;-70
2022/09/09 01:11:25;;;;;;;1.95;1.40;;;;;;;17.13;62.20;98887.38;5108768;28;20105;-71
2022/09/09 01:14:02;;;;;;;2.72;1.30;;;;;;;16.99;61.04;98881.44;5108507;28;20253;-71
2022/09/09 01:16:31;;;;;;;2.60;1.30;;;;;;;17.38;62.66;98937.78;5108525;28;20258;-71
2022/09/09 01:19:00;;;;;;;2.92;1.23;;;;;;;17.30;61.20;98937.63;5108221;28;20125;-71
2022/09/09 01:21:44;;;;;;;3.03;1.25;;;;;;;17.34;61.07;98939.06;5108562;28;20052;-71
2022/09/09 01:24:26;;;;;;;3.80;1.40;;;;;;;16.04;59.99;98749.00;5108711;28;20113;-71
2022/09/09 01:27:03;;;;;;;2.25;1.38;;;;;;;17.08;60.39;98916.41;5090700;28;20056;-71
2022/09/09 01:29:31;;;;;;;3.45;1.30;;;;;;;17.06;61.31;98924.56;5108696;28;20231;-71
2022/09/09 01:32:00;;;;;;;1.45;1.10;;;;;;;17.15;60.93;98947.84;5108391;28;20235;-70
2022/09/09 01:34:32;;;;;;;2.83;1.88;;;;;;;17.09;61.63;98948.41;5108092;28;20082;-71
2022/09/09 01:37:04;;;;;;;2.22;1.38;;;;;;;17.13;61.31;98957.00;5108040;28;20052;-70
2022/09/09 01:39:33;;;;;;;2.60;1.50;;;;;;;17.12;61.93;98958.84;5108797;28;20101;-71
2022/09/09 01:42:03;;;;;;;2.42;1.45;;;;;;;17.07;61.14;98949.50;5108103;28;20052;-71
2022/09/09 01:44:31;;;;;;;2.28;1.20;;;;;;;17.03;61.71;98951.63;5107781;28;20109;-71
2022/09/09 01:46:58;;;;;;;2.20;1.30;;;;;;;16.98;61.89;98964.56;5108043;28;20117;-71
2022/09/09 01:49:25;;;;;;;2.63;1.48;;;;;;;16.60;61.44;98898.28;5108061;28;20105;-71
2022/09/09 01:51:55;;;;;;;2.13;1.30;;;;;;;16.97;61.82;98958.34;5108114;28;20316;-71
2022/09/09 01:54:25;;;;;;;1.67;1.20;;;;;;;16.86;61.58;98933.50;5107992;28;20063;-71
2022/09/09 01:57:07;;;;;;;1.73;1.13;;;;;;;16.97;60.96;98958.34;5108015;28;20048;-71
2022/09/09 01:59:49;;;;;;;2.05;1.10;;;;;;;17.05;60.80;98956.84;5090924;28;20052;-71
2022/09/09 02:02:19;;;;;;;2.53;1.35;;;;;;;16.95;61.15;98948.75;5107853;28;20125;-70
2022/09/09 02:04:55;;;;;;;2.60;1.20;;;;;;;16.28;60.74;98835.06;5107727;28;20056;-70
2022/09/09 02:07:41;;;;;;;2.78;1.35;;;;;;;15.78;61.08;98747.72;5107653;28;20223;-70
2022/09/09 02:10:20;;;;;;;1.58;1.08;;;;;;;16.97;60.52;98944.97;5090101;28;20050;-70
2022/09/09 02:12:53;;;;;;;1.80;1.45;;;;;;;16.87;61.38;98948.59;5107396;28;20056;-70
2022/09/09 02:15:27;;;;;;;2.72;1.30;;;;;;;16.69;60.79;98924.28;5107623;28;20055;-70
2022/09/09 02:17:59;;;;;;;2.00;1.40;;;;;;;16.82;60.68;98938.28;5107179;28;20141;-70
2022/09/09 02:20:28;;;;;;;1.63;1.17;;;;;;;16.87;61.62;98941.41;5107552;28;20117;-71
2022/09/09 02:22:57;;;;;;;2.80;1.65;;;;;;;16.85;61.53;98939.84;5107237;28;20109;-70
2022/09/09 02:25:27;;;;;;;2.30;1.13;;;;;;;16.78;61.66;98910.09;5107479;28;20092;-70
2022/09/09 02:27:58;;;;;;;1.90;1.17;;;;;;;16.62;61.85;98882.97;5106923;28;20056;-69
2022/09/09 02:30:29;;;;;;;2.72;1.63;;;;;;;16.99;61.96;98932.28;5107177;28;20052;-69
2022/09/09 02:32:59;;;;;;;2.20;1.30;;;;;;;16.61;62.52;98865.22;5107142;28;20258;-70
2022/09/09 02:35:30;;;;;;;3.22;1.20;;;;;;;16.88;62.21;98916.34;5107223;28;20350;-70
2022/09/09 02:38:03;;;;;;;3.42;1.30;;;;;;;16.90;62.47;98929.59;5106986;28;20093;-71
2022/09/09 02:40:30;;;;;;;2.35;1.55;;;;;;;16.76;61.79;98932.63;5106852;28;20056;-72
2022/09/09 02:43:00;;;;;;;2.72;1.60;;;;;;;16.72;61.82;98942.75;5107094;28;20069;-70
2022/09/09 02:45:35;;;;;;;1.95;1.33;;;;;;;13.63;62.00;98422.63;5107090;28;20056;-70
2022/09/09 02:48:13;;;;;;;4.30;1.63;;;;;;;16.83;62.15;98942.66;5107155;28;20040;-70
2022/09/09 02:50:53;;;;;;;2.20;1.30;;;;;;;16.71;62.98;98908.94;5107353;28;20093;-70
2022/09/09 02:53:25;;;;;;;1.88;1.30;;;;;;;16.92;62.64;98939.16;5106776;28;20060;-70
2022/09/09 02:55:59;;;;;;;2.25;1.48;;;;;;;16.93;62.55;98938.19;5106390;28;20266;-70
2022/09/09 02:58:28;;;;;;;2.50;1.47;;;;;;;16.78;62.87;98920.81;5106766;28;20056;-71
2022/09/09 03:00:57;;;;;;;2.08;1.30;;;;;;;16.90;62.82;98943.81;5106576;28;20101;-70
2022/09/09 03:03:25;;;;;;;3.47;1.52;;;;;;;16.90;63.65;98943.81;5106509;28;20362;-70
2022/09/09 03:05:52;;;;;;;2.20;1.30;;;;;;;16.89;63.55;98946.63;5106602;28;20056;-71
2022/09/09 03:08:19;;;;;;;2.35;1.40;;;;;;;16.88;63.20;98945.78;5106539;28;20193;-70
2022/09/09 03:10:47;;;;;;;2.03;1.40;;;;;;;16.76;63.23;98954.88;5106532;28;20056;-71
2022/09/09 03:13:15;;;;;;;3.90;1.40;;;;;;;16.74;63.38;98950.63;5106257;28;20182;-69
2022/09/09 03:15:43;;;;;;;2.67;1.70;;;;;;;16.79;63.84;98951.94;5106534;28;20113;-70
2022/09/09 03:18:11;;;;;;;2.70;1.67;;;;;;;16.81;63.63;98955.31;5105516;28;20169;-70
2022/09/09 03:20:38;;;;;;;4.05;1.70;;;;;;;16.82;63.83;98949.00;5105790;28;20052;-70
2022/09/09 03:23:05;;;;;;;3.05;1.52;;;;;;;16.79;63.73;98943.06;5106274;28;20094;-70
2022/09/09 03:25:33;;;;;;;2.92;2.40;;;;;;;16.54;63.72;98906.84;5106128;28;20117;-70
2022/09/09 03:28:00;;;;;;;3.17;1.70;;;;;;;16.67;64.15;98958.34;5105693;28;20056;-70
2022/09/09 03:30:28;;;;;;;3.17;1.92;;;;;;;16.62;64.26;98944.50;5106027;28;20060;-70
2022/09/09 03:32:57;;;;;;;6.15;1.80;;;;;;;16.66;63.90;98946.78;5105849;28;20048;-70
2022/09/09 03:35:25;;;;;;;3.20;1.70;;;;;;;16.45;64.25;98899.63;5106247;28;20044;-70
2022/09/09 03:37:52;;;;;;;2.90;1.65;;;;;;;16.73;64.71;98941.75;5105958;28;20113;-70
2022/09/09 03:40:19;;;;;;;3.80;1.65;;;;;;;16.71;64.62;98935.69;5105566;28;20064;-70
2022/09/09 03:42:47;;;;;;;2.13;1.50;;;;;;;16.70;64.50;98935.84;5105691;28;20270;-70
2022/09/09 03:45:15;;;;;;;4.45;1.73;;;;;;;16.67;64.51;98927.09;5105886;28;20101;-70
2022/09/09 03:47:42;;;;;;;2.78;1.63;;;;;;;16.73;64.54;98941.75;5105675;28;20312;-70
2022/09/09 03:50:12;;;;;;;4.05;1.80;;;;;;;16.75;64.45;98950.50;5105796;28;20211;-71
2022/09/09 03:52:42;;;;;;;3.45;1.95;;;;;;;16.71;64.70;98949.06;5105524;28;20052;-71
2022/09/09 03:55:09;;;;;;;4.18;1.70;;;;;;;16.74;64.64;98951.47;5105699;28;20060;-70
2022/09/09 03:57:37;;;;;;;2.33;1.45;;;;;;;16.73;65.11;98955.13;5105639;28;20059;-70
2022/09/09 04:00:05;;;;;;;2.78;1.77;;;;;;;16.73;65.08;98939.09;5105215;28;20060;-70
2022/09/09 04:02:32;;;;;;;2.65;1.63;;;;;;;16.66;65.42;98938.78;5105469;28;20230;-70
2022/09/09 04:04:59;;;;;;;4.38;2.28;;;;;;;16.04;65.64;98838.03;5105419;28;20101;-70
2022/09/09 04:07:28;;;;;;;3.35;1.77;;;;;;;16.67;65.67;98947.66;5105696;28;20097;-70
2022/09/09 04:09:55;;;;;;;3.38;2.40;;;;;;;16.54;65.87;98928.25;5105844;28;20369;-69
2022/09/09 04:12:22;;;;;;;4.53;2.30;;;;;;;16.66;65.63;98951.31;5105045;28;20052;-70
2022/09/09 04:14:49;;;;;;;2.63;1.85;;;;;;;16.65;65.70;98949.56;5105110;28;20082;-70
2022/09/09 04:17:18;;;;;;;2.90;1.80;;;;;;;16.53;65.99;98921.22;5084072;28;20086;-71
2022/09/09 04:19:45;;;;;;;3.45;1.77;;;;;;;16.66;66.03;98944.13;5086118;28;20053;-71
2022/09/09 04:22:12;;;;;;;3.50;2.05;;;;;;;16.65;65.89;98945.06;5085810;28;20309;-70
2022/09/09 04:24:41;;;;;;;2.47;1.77;;;;;;;16.66;66.19;98951.31;5085252;28;20117;-70
2022/09/09 04:27:08;;;;;;;2.53;1.67;;;;;;;16.62;66.50;98953.38;5085180;28;20323;-70
2022/09/09 04:29:35;;;;;;;2.67;1.80;;;;;;;16.48;66.17;98932.31;5084788;28;20056;-70
2022/09/09 04:32:03;;;;;;;4.55;1.95;;;;;;;16.60;66.69;98949.97;5085311;28;20118;-70
2022/09/09 04:34:31;;;;;;;3.75;2.38;;;;;;;16.60;66.55;98959.81;5085256;28;20113;-70
2022/09/09 04:36:58;;;;;;;3.03;1.60;;;;;;;16.56;66.59;98961.91;5085269;28;20102;-70
2022/09/09 04:39:26;;;;;;;5.43;3.20;;;;;;;16.53;66.78;98966.69;5084817;28;20056;-70
2022/09/09 04:41:55;;;;;;;4.00;1.92;;;;;;;16.57;66.61;98976.13;5084735;28;20274;-70
2022/09/09 04:44:22;;;;;;;3.47;1.90;;;;;;;16.56;66.39;98979.78;5085021;28;20098;-69
2022/09/09 04:46:49;;;;;;;2.92;1.80;;;;;;;16.54;67.04;98979.06;5084906;28;20056;-70
2022/09/09 04:49:17;;;;;;;2.83;1.92;;;;;;;16.53;66.96;98983.59;5084934;28;20070;-70
2022/09/09 04:51:45;;;;;;;2.55;1.80;;;;;;;16.50;67.10;98983.84;5084918;28;20235;-71
2022/09/09 04:54:13;;;;;;;2.85;1.88;;;;;;;16.18;66.79;98938.44;5084888;28;20186;-71
2022/09/09 04:56:41;;;;;;;4.38;2.20;;;;;;;16.44;67.08;98988.88;5084936;28;20305;-70
2022/09/09 04:59:10;;;;;;;2.90;1.60;;;;;;;16.48;67.21;98984.94;5084876;28;20070;-70
2022/09/09 05:01:38;;;;;;;3.20;1.83;;;;;;;16.45;66.98;98985.22;5084979;28;20118;-70
2022/09/09 05:04:05;;;;;;;3.92;1.92;;;;;;;15.51;66.91;98831.88;5084638;28;20053;-70
2022/09/09 05:06:32;;;;;;;3.58;2.13;;;;;;;16.29;66.56;98964.28;5084787;28;20064;-69
2022/09/09 05:09:00;;;;;;;3.42;1.95;;;;;;;15.87;66.94;98900.09;5084548;28;20086;-69
2022/09/09 05:11:29;;;;;;;3.67;2.53;;;;;;;16.29;66.49;98975.81;5084356;28;20079;-69
2022/09/09 05:13:57;;;;;;;3.33;2.13;;;;;;;16.38;66.61;99002.75;5084280;28;20057;-69
2022/09/09 05:16:26;;;;;;;5.03;2.00;;;;;;;16.36;66.64;98990.38;5084410;28;20060;-69
2022/09/09 05:18:54;;;;;;;3.75;2.38;;;;;;;16.24;66.54;98975.34;5102530;28;20128;-69
2022/09/09 05:21:23;;;;;;;4.13;2.10;;;;;;;16.38;66.80;98994.72;5104743;28;20235;-69
2022/09/09 05:23:51;;;;;;;7.45;2.10;;;;;;;16.39;66.88;98991.94;5105133;28;20043;-69
2022/09/09 05:26:19;;;;;;;3.60;2.10;;;;;;;16.38;67.46;98995.59;5104583;28;20056;-69
2022/09/09 05:28:47;;;;;;;3.35;1.92;;;;;;;16.37;67.28;98996.56;5104461;28;20243;-69
2022/09/09 05:31:17;;;;;;;5.10;2.35;;;;;;;16.38;66.79;98992.91;5104399;28;20073;-69
2022/09/09 05:33:48;;;;;;;5.53;2.50;;;;;;;16.29;66.93;98977.63;5104451;28;20052;-69
2022/09/09 05:36:17;;;;;;;5.00;2.63;;;;;;;16.31;66.39;98987.22;5086562;28;20056;-69
2022/09/09 05:38:45;;;;;;;7.38;2.45;;;;;;;16.30;66.91;99000.72;5087097;28;20059;-69
2022/09/09 05:41:15;;;;;;;5.22;2.58;;;;;;;16.31;66.96;99005.09;5104064;28;20056;-69
2022/09/09 05:43:44;;;;;;;3.67;2.60;;;;;;;16.36;66.99;99003.72;5107716;28;20101;-69
2022/09/09 05:46:13;;;;;;;6.55;2.50;;;;;;;16.26;67.21;98984.09;5107623;28;20081;-69
2022/09/09 05:48:41;;;;;;;4.57;2.53;;;;;;;16.44;67.64;98999.56;5108171;28;20056;-69
2022/09/09 05:51:12;;;;;;;6.85;3.28;;;;;;;16.51;68.08;99006.09;5108042;28;20101;-69
2022/09/09 05:53:40;;;;;;;3.55;2.30;;;;;;;16.51;67.58;99000.75;5107521;28;20113;-69
2022/09/09 05:56:10;;;;;;;3.47;2.67;;;;;;;16.54;67.56;99005.81;5107369;28;20056;-68
2022/09/09 05:58:39;;;;;;;9.38;3.30;;;;;;;16.56;67.79;98995.84;5107728;28;20052;-69
2022/09/09 06:01:08;;;;;;;5.47;2.38;;;;;;;16.58;67.86;99005.44;5107772;28;20059;-69
2022/09/09 06:03:36;;;;;;;5.85;3.00;;;;;;;16.19;67.37;98940.13;5107346;28;20105;-69
2022/09/09 06:06:06;;;;;;;10.65;5.35;;;;;;;15.83;67.47;98865.75;5107479;28;20098;-70
2022/09/09 06:08:36;;;;;;;6.25;3.90;;;;;;;16.60;66.99;99003.47;5107573;28;20097;-70
2022/09/09 06:11:05;;;;;;;7.88;2.97;;;;;;;16.56;66.43;98991.34;5107309;28;20056;-70
2022/09/09 06:13:33;;;;;;;7.38;3.20;;;;;;;15.85;66.88;98869.13;5107676;28;20102;-69
2022/09/09 06:16:01;;;;;;;5.28;3.03;;;;;;;16.66;66.45;98981.59;5106956;28;20052;-70
2022/09/09 06:18:29;;;;;;;6.25;2.70;;;;;;;16.75;66.82;98982.63;5106756;28;20082;-69
2022/09/09 06:20:58;;;;;;;6.65;3.20;;;;;;;16.22;66.43;98846.31;5107338;28;20116;-70
2022/09/09 06:23:26;;;;;;;3.70;2.42;;;;;;;17.30;66.08;98981.34;5107581;28;20345;-70
2022/09/09 06:26:02;;;;;;;3.80;2.50;;;;;;;17.39;65.45;98960.91;5107209;28;20113;-70
2022/09/09 06:28:29;;;;;;;5.47;3.15;;;;;;;17.33;65.20;98921.28;5107134;28;20120;-70
2022/09/09 06:30:59;;;;;;;4.43;2.90;;;;;;;17.80;64.22;98956.38;5107159;28;20238;-70
2022/09/09 06:33:27;;;;;;;3.35;2.80;;;;;;;18.10;63.86;98969.66;5106650;28;20097;-70
2022/09/09 06:35:56;;;;;;;4.25;2.67;;;;;;;18.22;63.28;98952.41;5107204;28;20239;-69
2022/09/09 06:38:24;;;;;;;5.28;2.88;;;;;;;18.49;62.65;98966.91;5106967;28;20078;-70
2022/09/09 06:40:55;;;;;;;4.70;2.60;;;;;;;18.68;62.33;98964.22;5106824;28;20185;-69
2022/09/09 06:43:22;;;;;;;3.97;2.88;;;;;;;18.66;62.27;98966.22;5106766;28;20051;-70
2022/09/09 06:45:57;;;;;;;6.18;3.00;;;;;;;18.56;62.27;98966.22;5106425;28;20251;-70
2022/09/09 06:48:25;;;;;;;4.88;3.05;;;;;;;18.43;63.76;98970.19;5106746;28;20265;-70
2022/09/09 06:51:00;;;;;;;4.07;2.47;;;;;;;18.30;64.06;98983.88;5106358;28;20063;-69
2022/09/09 06:53:28;;;;;;;3.72;2.42;;;;;;;18.12;64.15;98966.81;5106452;28;20064;-70
2022/09/09 06:55:57;;;;;;;4.60;3.70;;;;;;;18.22;64.74;98991.81;5089219;28;20056;-70
2022/09/09 06:58:24;;;;;;;4.15;3.22;;;;;;;18.24;63.61;98984.47;5106593;28;20059;-70
2022/09/09 07:00:51;;;;;;;5.10;3.10;;;;;;;18.17;63.76;98962.72;5106601;28;20056;-70
2022/09/09 07:03:18;;;;;;;5.60;2.78;;;;;;;18.30;63.21;98975.84;5106440;28;20101;-69
2022/09/09 07:05:55;;;;;;;4.47;3.05;;;;;;;18.35;62.66;98972.72;5106211;28;20062;-70
2022/09/09 07:08:24;;;;;;;4.85;2.53;;;;;;;18.34;63.53;98973.72;5106261;28;20052;-72
2022/09/09 07:10:53;;;;;;;4.78;3.08;;;;;;;18.37;63.54;98978.81;5106501;28;20230;-71
2022/09/09 07:13:25;;;;;;;4.60;2.47;;;;;;;18.53;64.00;98979.09;5105904;28;20106;-71
2022/09/09 07:15:52;;;;;;;5.57;2.75;;;;;;;18.64;62.76;98989.66;5106070;28;20063;-70
2022/09/09 07:18:20;;;;;;;4.85;3.45;;;;;;;18.68;62.38;98983.00;5105668;28;20109;-70
2022/09/09 07:20:54;;;;;;;4.43;3.03;;;;;;;18.74;62.11;98979.75;5106339;28;20056;-71
2022/09/09 07:23:22;;;;;;;5.20;2.85;;;;;;;18.76;62.58;98975.09;5106125;28;20058;-71
2022/09/09 07:25:50;;;;;;;5.05;2.47;;;;;;;18.74;61.76;98962.78;5105802;28;20323;-71
2022/09/09 07:28:17;;;;;;;5.38;2.80;;;;;;;18.61;62.12;98956.91;5106015;28;20064;-70
2022/09/09 07:30:54;;;;;;;6.72;2.38;;;;;;;18.67;60.70;98951.81;5106050;28;20212;-70
2022/09/09 07:33:21;;;;;;;6.53;2.67;;;;;;;18.87;61.81;98969.53;5105657;28;20060;-71
2022/09/09 07:35:49;;;;;;;6.05;2.53;;;;;;;19.00;62.26;98974.59;5105617;28;20048;-71
2022/09/09 07:38:16;;;;;;;13.60;3.03;;;;;;;19.11;61.80;98977.09;5105873;28;20048;-70
2022/09/09 07:40:44;;;;;;;6.07;3.10;;;;;;;19.21;60.08;98979.72;5105858;28;20105;-70
2022/09/09 07:43:12;;;;;;;5.43;2.80;;;;;;;19.32;60.43;98979.53;5105816;28;20113;-69
2022/09/09 07:45:40;;;;;;;6.85;2.63;;;;;;;19.37;60.14;98981.78;5105651;28;20086;-70
2022/09/09 07:48:10;;;;;;;3.25;2.13;;;;;;;19.41;59.49;98967.06;5105281;28;20051;-69
2022/09/09 07:50:39;;;;;;;4.68;2.65;;;;;;;19.45;60.17;98974.69;5105550;28;20060;-69
2022/09/09 07:53:06;;;;;;;6.30;2.40;;;;;;;19.48;60.82;98976.22;5105285;28;20056;-69
2022/09/09 07:55:34;;;;;;;6.45;3.65;;;;;;;19.51;60.47;98984.84;5105231;28;20231;-69
2022/09/09 07:58:01;;;;;;;9.45;3.25;;;;;;;19.02;60.24;98904.59;5105465;28;20369;-69
2022/09/09 08:00:28;;;;;;;5.22;3.08;;;;;;;19.45;61.05;98980.06;5105389;28;20338;-69
2022/09/09 08:02:56;;;;;;;5.28;3.10;;;;;;;19.43;60.53;98981.19;5105376;28;20059;-69
2022/09/09 08:05:25;;;;;;;5.47;3.30;;;;;;;19.42;61.32;98983.03;5104669;28;20056;-69
2022/09/09 08:07:52;;;;;;;6.75;3.28;;;;;;;19.38;61.21;98991.53;5105102;28;20059;-69
2022/09/09 08:10:20;;;;;;;12.88;3.50;;;;;;;19.38;60.87;99000.44;5104924;28;20112;-69
2022/09/09 08:12:48;;;;;;;5.45;3.22;;;;;;;19.40;60.52;99003.00;5104722;28;20059;-69
2022/09/09 08:15:16;;;;;;;5.68;3.50;;;;;;;19.41;60.49;98991.25;5105235;28;20052;-71
2022/09/09 08:17:43;;;;;;;4.47;3.33;;;;;;;19.41;61.31;99002.00;5105195;28;20056;-70
2022/09/09 08:20:11;;;;;;;4.20;3.30;;;;;;;19.39;60.78;99004.84;5104775;28;20109;-69
2022/09/09 08:22:39;;;;;;;7.03;3.25;;;;;;;19.39;60.71;98993.25;5105329;28;20040;-70
2022/09/09 08:25:08;;;;;;;3.92;2.55;;;;;;;19.44;61.08;98990.97;5104849;28;20153;-70
2022/09/09 08:27:35;;;;;;;6.43;3.30;;;;;;;19.42;60.54;98974.13;5104801;28;20106;-69
2022/09/09 08:30:02;;;;;;;5.55;3.03;;;;;;;19.56;60.69;98995.13;5104975;28;20121;-70
2022/09/09 08:32:30;;;;;;;4.85;3.05;;;;;;;19.62;60.27;98999.06;5104260;28;20068;-69
2022/09/09 08:34:57;;;;;;;4.93;2.65;;;;;;;19.73;60.01;98998.84;5104757;28;20064;-69
2022/09/09 08:37:25;;;;;;;3.72;2.80;;;;;;;19.82;58.95;99003.34;5104926;28;20056;-70
2022/09/09 08:39:54;;;;;;;5.30;2.97;;;;;;;19.69;58.33;98957.13;5104360;28;20121;-71
2022/09/09 08:42:39;;;;;;;5.60;2.80;;;;;;;20.05;57.68;98995.69;5104611;28;20059;-71
2022/09/09 08:45:29;;;;;;;5.45;2.78;;;;;;;20.14;56.55;98982.16;5104298;28;20059;-71
2022/09/09 08:48:09;;;;;;;6.07;2.53;;;;;;;20.25;56.28;98981.09;5104617;28;20056;-71
2022/09/09 08:50:40;;;;;;;4.50;2.38;;;;;;;20.30;57.81;98981.50;5104569;28;20094;-71
2022/09/09 08:53:16;;;;;;;6.78;2.38;;;;;;;20.37;56.13;98974.47;5104612;28;20064;-71
2022/09/09 08:55:49;;;;;;;3.60;2.40;;;;;;;20.52;55.57;98966.69;5087686;28;20101;-71
2022/09/09 08:58:20;;;;;;;6.55;2.60;;;;;;;20.54;55.98;98963.84;5086701;28;20055;-71
2022/09/09 09:01:01;;;;;;;4.82;2.75;;;;;;;20.74;54.37;98970.72;5105024;28;20194;-71
2022/09/09 09:03:39;;;;;;;5.03;2.30;;;;;;;20.76;53.70;98969.56;5104320;28;20056;-71
2022/09/09 09:06:23;;;;;;;2.75;1.80;;;;;;;20.81;53.55;98975.31;5104471;28;20067;-71
2022/09/09 09:08:55;;;;;;;;;;;;;;;20.75;53.01;98967.84;5104971;28;20056;-71
2022/09/09 09:11:24;;;;;;;3.45;2.17;;;;;;;20.62;54.13;98904.66;5104649;28;19924;-71
2022/09/09 09:13:57;;;;;;;4.20;1.83;;;;;;;21.08;54.83;98957.31;5103946;28;20048;-71
2022/09/09 09:16:33;;;;;;;5.05;2.53;;;;;;;21.13;53.39;98963.06;5086916;28;20382;-71
2022/09/09 09:19:01;;;;;;;4.57;2.10;;;;;;;21.14;54.13;98953.97;5107889;28;20125;-71
2022/09/09 09:21:37;;;;;;;6.50;2.30;;;;;;;21.19;53.41;98951.63;5108242;28;20055;-71
2022/09/09 09:24:09;;;;;;;3.63;2.00;;;;;;;20.69;52.24;98876.94;5108246;28;20078;-72
2022/09/09 09:26:38;;;;;;;2.38;1.45;;;;;;;21.22;54.13;98954.00;5108409;28;20047;-71
2022/09/09 09:29:14;;;;;;;4.43;1.85;;;;;;;20.79;51.59;98864.22;5107925;28;20107;-71
2022/09/09 09:31:47;;;;;;;2.90;1.60;;;;;;;21.58;53.15;98943.84;5107862;28;20056;-71
2022/09/09 09:34:15;;;;;;;3.75;2.03;;;;;;;21.55;52.65;98929.84;5107782;28;20113;-71
2022/09/09 09:36:46;;;;;;;3.55;1.85;;;;;;;21.85;52.14;98942.75;5107649;28;20052;-71
2022/09/09 09:39:24;;;;;;;2.92;1.80;;;;;;;19.84;49.02;98609.63;5107601;28;20056;-71
2022/09/09 09:41:54;;;;;;;3.42;1.70;;;;;;;21.72;51.88;98913.53;5107777;28;20113;-71
2022/09/09 09:44:27;;;;;;;7.32;2.00;;;;;;;21.91;51.20;98930.47;5090315;28;20046;-72
2022/09/09 09:47:07;;;;;;;3.27;2.03;;;;;;;21.91;50.42;98931.31;5107787;28;20097;-71
2022/09/09 09:49:34;;;;;;;2.63;1.60;;;;;;;21.73;53.23;98901.75;5107922;28;20109;-71
2022/09/09 09:52:02;;;;;;;4.00;2.00;;;;;;;21.95;52.66;98938.06;5089909;28;20044;-72
2022/09/09 09:54:32;;;;;;;3.38;2.25;;;;;;;22.05;52.25;98929.78;5107528;28;20250;-71
2022/09/09 09:57:10;;;;;;;3.90;2.13;;;;;;;21.64;49.09;98847.97;5107483;28;20056;-71
2022/09/09 09:59:39;;;;;;;4.05;1.75;;;;;;;21.90;51.78;98896.41;5107311;28;20073;-71
2022/09/09 10:02:18;;;;;;;3.20;1.80;;;;;;;22.08;49.31;98919.50;5107325;28;20269;-71
2022/09/09 10:04:46;;;;;;;2.92;1.90;;;;;;;21.64;51.78;98848.81;5107562;28;20059;-71
2022/09/09 10:07:18;;;;;;;3.75;1.73;;;;;;;22.14;51.33;98920.69;5107099;28;20056;-72
2022/09/09 10:09:45;;;;;;;3.13;1.90;;;;;;;22.17;51.71;98928.44;5107527;28;20311;-72
2022/09/09 10:12:30;;;;;;;3.00;1.65;;;;;;;22.13;49.64;98921.69;5089626;28;20184;-71
2022/09/09 10:15:05;;;;;;;3.08;1.90;;;;;;;22.13;50.80;98926.25;5107217;28;20064;-72
2022/09/09 10:17:41;;;;;;;3.60;1.83;;;;;;;21.93;50.39;98880.72;5107111;28;20117;-72
2022/09/09 10:20:25;;;;;;;2.92;1.55;;;;;;;22.29;49.35;98916.31;5089252;28;20048;-72
2022/09/09 10:22:55;;;;;;;4.05;2.42;;;;;;;22.33;51.86;98920.34;5106923;28;20051;-71
2022/09/09 10:25:38;;;;;;;4.15;2.08;;;;;;;22.21;49.84;98926.25;5106917;28;20251;-71
2022/09/09 10:28:51;;;;;;;3.58;1.85;;;;;;;22.12;50.03;98928.13;5106773;28;20125;-72
2022/09/09 10:31:28;;;;;;;3.03;1.83;;;;;;;21.60;51.71;98833.13;5081413;28;20056;-72
2022/09/09 10:34:07;;;;;;;3.08;1.60;;;;;;;22.10;50.53;98919.34;5107003;28;20048;-71
2022/09/09 10:36:36;;;;;;;4.55;2.20;;;;;;;22.10;52.40;98922.88;5106866;28;20052;-71
2022/09/09 10:39:06;;;;;;;3.95;2.05;;;;;;;22.14;52.80;98920.69;5106681;28;20063;-74
2022/09/09 10:41:50;;;;;;;3.67;1.83;;;;;;;22.16;51.08;98909.72;5105326;28;20044;-72
2022/09/09 10:44:45;;;;;;;4.25;2.42;;;;;;;22.16;50.25;98912.44;5106765;28;20105;-72
2022/09/09 10:47:46;;;;;;;4.10;2.92;;;;;;;22.22;50.65;98917.16;5106348;28;20113;-71
2022/09/09 10:50:33;;;;;;;4.32;2.20;;;;;;;22.25;50.38;98912.25;5099300;28;20105;-73
2022/09/09 10:53:10;;;;;;;3.80;2.33;;;;;;;22.31;51.53;98926.94;5106618;28;20113;-72
2022/09/09 10:55:42;;;;;;;4.47;2.67;;;;;;;22.35;51.43;98922.88;5106429;28;20056;-71
2022/09/09 10:58:15;;;;;;;4.38;2.75;;;;;;;22.42;51.99;98927.47;5106178;28;20117;-71
2022/09/09 11:00:46;;;;;;;4.97;2.47;;;;;;;22.45;51.83;98926.28;5106254;28;20075;-72
2022/09/09 11:03:21;;;;;;;3.08;2.20;;;;;;;21.63;51.65;98803.97;5106134;28;20243;-72
2022/09/09 11:05:53;;;;;;;2.95;2.08;;;;;;;22.29;52.55;98901.97;5106132;28;20101;-73
2022/09/09 11:08:22;;;;;;;3.40;1.90;;;;;;;22.41;53.19;98919.53;5106542;28;20312;-72
2022/09/09 11:10:55;;;;;;;4.15;2.22;;;;;;;22.42;51.48;98916.66;5105710;28;20056;-72
2022/09/09 11:13:27;;;;;;;3.50;2.22;;;;;;;22.34;51.88;98915.78;5105889;28;20109;-73
2022/09/09 11:16:02;;;;;;;3.72;3.00;;;;;;;22.23;50.12;98925.06;5105269;28;20078;-72
2022/09/09 11:18:32;;;;;;;3.63;1.80;;;;;;;22.18;52.40;98922.03;5105678;28;20085;-72
2022/09/09 11:21:04;;;;;;;5.18;1.75;;;;;;;22.22;52.00;98918.00;5105959;28;20058;-73
2022/09/09 11:23:40;;;;;;;2.70;1.60;;;;;;;21.82;52.03;98842.44;5105445;28;20063;-72
2022/09/09 11:26:12;;;;;;;2.72;1.60;;;;;;;22.22;53.38;98914.44;5106162;28;20078;-72
2022/09/09 11:28:53;;;;;;;3.95;2.25;;;;;;;22.22;51.50;98918.00;5088034;28;20055;-72
2022/09/09 11:31:41;;;;;;;3.00;1.98;;;;;;;22.10;50.61;98898.59;5087473;28;20113;-72
2022/09/09 11:34:22;;;;;;;2.80;1.60;;;;;;;22.17;50.52;98920.34;5105640;28;20145;-73
2022/09/09 11:37:09;;;;;;;3.50;2.30;;;;;;;22.20;51.54;98911.91;5105529;28;20052;-73
2022/09/09 11:39:54;;;;;;;3.03;1.85;;;;;;;22.18;50.60;98908.53;5104323;28;20115;-72
2022/09/09 11:42:24;;;;;;;3.00;1.85;;;;;;;22.20;52.48;98908.38;5105290;28;20051;-72
2022/09/09 11:44:53;;;;;;;3.25;2.20;;;;;;;22.23;50.62;98908.03;5105449;28;20308;-72
2022/09/09 11:47:29;;;;;;;3.83;2.22;;;;;;;22.30;51.37;98903.66;5105025;28;20048;-72
2022/09/09 11:50:07;;;;;;;5.80;2.17;;;;;;;22.20;51.69;98876.84;5105177;28;20052;-73
2022/09/09 11:52:38;;;;;;;5.22;2.25;;;;;;;22.32;51.76;98896.22;5087442;28;20051;-72
2022/09/09 11:55:11;;;;;;;3.97;2.72;;;;;;;22.34;50.71;98894.19;5105158;28;20048;-72